Terminal Aerodrome Forecast
Issued by NWS Hastings, NE

Home | Current Version | Previous Version | Text Only | Print | Product List | Glossary On
Versions: 1 2 3 4 5 6 7 8 9 10 11 12 13 14 15
284
FTUS45 KGID 261222 AAA
TAFEAR
TAF AMD
KEAR 261222Z 2612/2712 26007KT P6SM -SHRA BKN120
     FM261400 30006KT P6SM SCT120
     FM261700 33005KT P6SM SCT200
     FM262000 03007KT P6SM SCT150
     FM262300 06008KT P6SM FEW200
     FM270400 09006KT P6SM FEW250
     FM270600 12006KT P6SM FEW200
      AMD LTD TO CLD VIS AND WIND=

USA.gov is the U.S. government's official web portal to all federal, state and local government web resources and services.